Time;durP1;ratioP1;P1;durP2;ratioP2;P2;SDS_P1;SDS_P2;PMS_P1;PMS_P2;Temp;Humidity;BMP_temperature;BMP_pressure;BME280_temperature;BME280_humidity;BME280_pressure;Samples;Min_cycle;Max_cycle;Signal;HPM_P1;HPM_P2
2021/11/01 00:03:09;;;;;;;;;;;18.00;43.30;;;;;;8363257;28;19917;-49
2021/11/01 00:07:13;;;;;;;;;;;18.00;43.30;;;;;;8363728;28;19921;-49
2021/11/01 00:11:14;;;;;;;;;;;18.00;43.30;;;;;;8363203;28;19913;-51
2021/11/01 00:15:14;;;;;;;;;;;18.00;43.30;;;;;;8363230;28;19921;-48
2021/11/01 00:19:15;;;;;;;;;;;18.00;43.30;;;;;;8364041;28;19940;-49
2021/11/01 00:23:15;;;;;;;;;;;18.00;43.40;;;;;;8363006;28;20398;-51
2021/11/01 00:27:16;;;;;;;;;;;17.90;43.30;;;;;;8363214;28;19924;-47
2021/11/01 00:31:16;;;;;;;;;;;18.00;43.30;;;;;;8363316;28;19917;-48
2021/11/01 00:35:17;;;;;;;;;;;18.00;43.40;;;;;;8362975;28;19925;-49
2021/11/01 00:39:17;;;;;;;;;;;17.90;43.30;;;;;;8363434;28;19920;-48
2021/11/01 00:43:18;;;;;;;;;;;17.90;43.30;;;;;;8363022;28;19917;-48
2021/11/01 00:47:18;;;;;;;;;;;17.90;43.30;;;;;;8362555;28;19963;-48
2021/11/01 00:51:19;;;;;;;;;;;17.90;43.40;;;;;;8363013;28;20331;-47
2021/11/01 00:55:25;;;;;;;;;;;17.90;43.40;;;;;;8363394;28;19931;-47
2021/11/01 00:59:26;;;;;;;;;;;17.90;43.40;;;;;;8366907;28;20011;-47
2021/11/01 01:03:27;;;;;;;;;;;17.90;43.40;;;;;;8368744;28;19917;-47
2021/11/01 01:07:27;;;;;;;;;;;17.90;43.40;;;;;;8368516;28;19963;-48
2021/11/01 01:11:28;;;;;;;;;;;17.90;43.40;;;;;;8367950;28;19920;-48
2021/11/01 01:15:35;;;;;;;;;;;17.90;43.40;;;;;;8368061;28;19924;-47
2021/11/01 01:19:52;;;;;;;;;;;17.90;43.40;;;;;;8371550;28;19940;-47
2021/11/01 01:23:53;;;;;;;;;;;17.90;43.40;;;;;;8367782;28;19917;-47
2021/11/01 01:27:53;;;;;;;;;;;17.90;43.40;;;;;;8367986;28;19962;-50
2021/11/01 01:31:54;;;;;;;;;;;17.90;43.40;;;;;;8367721;28;20270;-48
2021/11/01 01:35:56;;;;;;;;;;;17.90;43.30;;;;;;8367105;28;19943;-47
2021/11/01 01:39:56;;;;;;;;;;;17.90;43.40;;;;;;8367926;28;19912;-48
2021/11/01 01:43:58;;;;;;;;;;;17.90;43.40;;;;;;8367552;28;20047;-47
2021/11/01 01:47:59;;;;;;;;;;;17.90;43.40;;;;;;8366816;28;20392;-48
2021/11/01 01:51:59;;;;;;;;;;;17.90;43.40;;;;;;8367103;28;19917;-48
2021/11/01 01:56:00;;;;;;;;;;;17.90;43.40;;;;;;8367786;28;19925;-47
2021/11/01 02:00:00;;;;;;;;;;;17.90;43.40;;;;;;8366926;28;19917;-47
2021/11/01 02:04:01;;;;;;;;;;;17.90;43.40;;;;;;8351244;28;20424;-52
2021/11/01 02:08:06;;;;;;;;;;;17.90;43.40;;;;;;8351387;28;19917;-48
2021/11/01 02:12:09;;;;;;;;;;;17.90;43.40;;;;;;8366206;28;19923;-47
2021/11/01 02:16:11;;;;;;;;;;;17.90;43.40;;;;;;8366602;28;19921;-47
2021/11/01 02:20:14;;;;;;;;;;;17.90;43.40;;;;;;8366899;28;19955;-47
2021/11/01 02:24:16;;;;;;;;;;;17.90;43.40;;;;;;8366314;28;20050;-47
2021/11/01 02:28:23;;;;;;;;;;;17.90;43.40;;;;;;8366481;28;19917;-48
2021/11/01 02:32:24;;;;;;;;;;;17.90;43.40;;;;;;8365667;28;20259;-47
2021/11/01 02:36:25;;;;;;;;;;;17.90;43.40;;;;;;8366328;28;19924;-47
2021/11/01 02:40:26;;;;;;;;;;;17.90;43.40;;;;;;8366149;28;19913;-47
2021/11/01 02:44:28;;;;;;;;;;;17.90;43.40;;;;;;8365493;28;19917;-48
2021/11/01 02:48:28;;;;;;;;;;;17.90;43.40;;;;;;8365639;28;19920;-47
2021/11/01 02:52:30;;;;;;;;;;;17.90;43.40;;;;;;8365628;28;20305;-47
2021/11/01 02:56:30;;;;;;;;;;;17.90;43.40;;;;;;8365653;28;19960;-46
2021/11/01 03:00:32;;;;;;;;;;;17.90;43.50;;;;;;8365422;28;19913;-47
2021/11/01 03:04:32;;;;;;;;;;;17.90;43.50;;;;;;8365242;28;20000;-47
2021/11/01 03:08:33;;;;;;;;;;;17.90;43.50;;;;;;8364911;28;19920;-48
2021/11/01 03:12:37;;;;;;;;;;;17.90;43.60;;;;;;8365184;28;20346;-47
2021/11/01 03:16:38;;;;;;;;;;;17.90;43.50;;;;;;8364727;28;19928;-47
2021/11/01 03:20:40;;;;;;;;;;;17.90;43.60;;;;;;8363984;28;19913;-48
2021/11/01 03:24:43;;;;;;;;;;;17.90;43.60;;;;;;8364443;28;19921;-48
2021/11/01 03:28:50;;;;;;;;;;;17.90;43.60;;;;;;8364263;28;19921;-48
2021/11/01 03:32:51;;;;;;;;;;;17.90;43.60;;;;;;8363857;28;19979;-47
2021/11/01 03:36:52;;;;;;;;;;;17.90;43.70;;;;;;8363968;28;19933;-48
2021/11/01 03:40:52;;;;;;;;;;;17.90;43.70;;;;;;8364316;28;20344;-47
2021/11/01 03:44:59;;;;;;;;;;;17.90;43.70;;;;;;8363508;28;19967;-48
2021/11/01 03:49:00;;;;;;;;;;;17.90;43.70;;;;;;8363816;28;19923;-48
2021/11/01 03:53:01;;;;;;;;;;;17.90;43.80;;;;;;8363637;28;20004;-48
2021/11/01 03:57:02;;;;;;;;;;;17.80;43.80;;;;;;8363749;28;20424;-48
2021/11/01 04:01:03;;;;;;;;;;;17.90;43.80;;;;;;8363962;28;19995;-47
2021/11/01 04:05:04;;;;;;;;;;;17.90;43.90;;;;;;8363485;28;19947;-48
2021/11/01 04:09:05;;;;;;;;;;;17.80;43.90;;;;;;8363058;28;19924;-48
2021/11/01 04:13:05;;;;;;;;;;;17.90;43.90;;;;;;8363427;28;20496;-48
2021/11/01 04:17:11;;;;;;;;;;;17.90;43.90;;;;;;8363098;28;19921;-47
2021/11/01 04:21:12;;;;;;;;;;;17.80;43.90;;;;;;8362741;28;19913;-48
2021/11/01 04:25:13;;;;;;;;;;;17.80;43.90;;;;;;8363298;28;20297;-48
2021/11/01 04:29:13;;;;;;;;;;;17.80;44.00;;;;;;8362870;28;20393;-48
2021/11/01 04:33:18;;;;;;;;;;;17.80;44.00;;;;;;8365451;28;19957;-47
2021/11/01 04:37:19;;;;;;;;;;;17.80;44.00;;;;;;8369459;28;19929;-47
2021/11/01 04:41:30;;;;;;;;;;;17.80;44.10;;;;;;8369292;28;19999;-47
2021/11/01 04:54:09;;;;;;;;;;;17.80;44.20;;;;;;8368753;28;19955;-47
2021/11/01 04:58:10;;;;;;;;;;;17.80;44.10;;;;;;8368880;28;20342;-48
2021/11/01 05:02:10;;;;;;;;;;;17.80;44.20;;;;;;8368718;28;20007;-47
2021/11/01 05:06:16;;;;;;;;;;;17.80;44.10;;;;;;8367249;28;20358;-47
2021/11/01 05:10:27;;;;;;;;;;;17.80;44.20;;;;;;8369445;28;19921;-47
2021/11/01 05:15:35;;;;;;;;;;;17.80;44.20;;;;;;8367821;28;19917;-48
2021/11/01 05:19:20;;;;;;;;;;;17.80;44.20;;;;;;8359573;28;19931;-49
2021/11/01 05:27:35;;;;;;;;;;;17.80;44.20;;;;;;8368708;28;19912;-48
2021/11/01 05:31:56;;;;;;;;;;;17.80;44.20;;;;;;8372628;28;19913;-47
2021/11/01 05:35:56;;;;;;;;;;;17.80;44.20;;;;;;8367415;28;19924;-47
2021/11/01 05:39:57;;;;;;;;;;;17.80;44.20;;;;;;8367538;28;20305;-48
2021/11/01 05:43:57;;;;;;;;;;;17.80;44.20;;;;;;8366910;28;20512;-48
2021/11/01 05:48:00;;;;;;;;;;;17.80;44.20;;;;;;8366879;28;19927;-48
2021/11/01 05:52:04;;;;;;;;;;;17.80;44.20;;;;;;8367469;28;19940;-51
2021/11/01 05:56:21;;;;;;;;;;;17.80;44.20;;;;;;8367191;28;19961;-48
2021/11/01 06:00:38;;;;;;;;;;;17.80;44.10;;;;;;8367003;28;20087;-48
2021/11/01 06:04:51;;;;;;;;;;;17.80;44.10;;;;;;8369611;28;20262;-47
2021/11/01 06:09:16;;;;;;;;;;;17.80;44.20;;;;;;8367285;28;19938;-47
2021/11/01 06:13:30;;;;;;;;;;;17.80;44.20;;;;;;8366538;28;19979;-49
2021/11/01 06:17:32;;;;;;;;;;;17.80;44.10;;;;;;8366324;28;19925;-48
2021/11/01 06:21:33;;;;;;;;;;;17.80;44.10;;;;;;8366483;28;20401;-47
2021/11/01 06:25:34;;;;;;;;;;;17.80;44.10;;;;;;8366079;28;20384;-47
2021/11/01 06:29:48;;;;;;;;;;;17.80;44.10;;;;;;8365556;28;19917;-46
2021/11/01 06:42:38;;;;;;;;;;;17.80;44.10;;;;;;8365339;28;19923;-47
2021/11/01 06:51:16;;;;;;;;;;;17.80;44.10;;;;;;8365471;28;19962;-47
2021/11/01 07:17:03;;;;;;;;;;;17.80;44.10;;;;;;8364474;28;19970;-47
2021/11/01 09:13:05;;;;;;;;;;;17.90;44.20;;;;;;8370327;28;19917;-49
2021/11/01 09:25:56;;;;;;;;;;;17.90;44.10;;;;;;8368723;28;19917;-46
2021/11/01 09:38:42;;;;;;;;;;;17.90;44.10;;;;;;8369663;28;19965;-48
2021/11/01 09:42:46;;;;;;;;;;;17.90;44.10;;;;;;8370556;28;20317;-50
2021/11/01 09:46:47;;;;;;;;;;;17.90;44.10;;;;;;8367728;28;19979;-50
2021/11/01 09:50:49;;;;;;;;;;;17.90;44.10;;;;;;8367094;28;19920;-51
2021/11/01 09:54:53;;;;;;;;;;;17.90;44.10;;;;;;8367478;28;19921;-48
2021/11/01 09:59:12;;;;;;;;;;;17.90;44.10;;;;;;8367364;28;19974;-50
2021/11/01 10:03:13;;;;;;;;;;;17.90;44.00;;;;;;8367193;28;19950;-47
2021/11/01 10:07:23;;;;;;;;;;;17.90;44.00;;;;;;8367166;28;19917;-49
2021/11/01 10:11:26;;;;;;;;;;;18.00;44.10;;;;;;8366340;28;19924;-47
2021/11/01 10:19:48;;;;;;;;;;;18.00;44.10;;;;;;8368963;28;19923;-47
2021/11/01 10:23:51;;;;;;;;;;;18.00;44.10;;;;;;8366182;28;20001;-51
2021/11/01 10:27:59;;;;;;;;;;;18.00;44.10;;;;;;8366317;28;19917;-46
2021/11/01 10:32:00;;;;;;;;;;;18.00;44.10;;;;;;8365886;28;19960;-47
2021/11/01 10:36:01;;;;;;;;;;;18.00;44.10;;;;;;8365643;28;19932;-49
2021/11/01 10:40:05;;;;;;;;;;;18.00;44.10;;;;;;8365825;28;19916;-46
2021/11/01 10:44:16;;;;;;;;;;;18.00;44.10;;;;;;8366055;28;19913;-50
2021/11/01 11:47:26;;;;;;;;;;;18.00;44.30;;;;;;8363634;28;20285;-49
2021/11/01 11:51:27;;;;;;;;;;;18.00;44.20;;;;;;8363877;28;19972;-48
2021/11/01 11:55:29;;;;;;;;;;;18.00;44.20;;;;;;8363481;28;19929;-48
2021/11/01 11:59:36;;;;;;;;;;;18.00;44.20;;;;;;8363435;28;19916;-48
2021/11/01 12:03:38;;;;;;;;;;;18.00;44.20;;;;;;8363507;28;19917;-49
2021/11/01 12:07:39;;;;;;;;;;;18.00;44.20;;;;;;8363407;28;19916;-48
2021/11/01 12:12:10;;;;;;;;;;;18.00;44.20;;;;;;8363028;28;19917;-47
2021/11/01 12:20:30;;;;;;;;;;;18.00;44.20;;;;;;8362814;28;19927;-48
2021/11/01 12:24:31;;;;;;;;;;;18.00;44.20;;;;;;8363629;28;19913;-49
2021/11/01 12:28:31;;;;;;;;;;;18.00;44.20;;;;;;8363491;28;20381;-47
2021/11/01 12:32:34;;;;;;;;;;;18.00;44.20;;;;;;8362864;28;19932;-50
2021/11/01 12:40:51;;;;;;;;;;;18.00;44.10;;;;;;8363146;28;19924;-48
2021/11/01 12:56:59;;;;;;;;;;;18.10;44.10;;;;;;8364900;28;20377;-48
2021/11/01 12:57:50;;;;;;;;;;;18.10;44.10;;;;;;8361301;28;19932;-49
2021/11/01 13:01:51;;;;;;;;;;;18.10;44.10;;;;;;8369165;28;19917;-48
2021/11/01 13:05:59;;;;;;;;;;;18.10;44.10;;;;;;8368497;28;19959;-47
2021/11/01 13:10:09;;;;;;;;;;;18.10;44.10;;;;;;8370611;28;19952;-47
2021/11/01 13:14:44;;;;;;;;;;;18.10;44.10;;;;;;8368457;28;19917;-49
2021/11/01 13:18:45;;;;;;;;;;;18.10;44.10;;;;;;8368095;28;19924;-47
2021/11/01 13:22:46;;;;;;;;;;;18.10;44.00;;;;;;8368300;28;19917;-53
2021/11/01 13:39:26;;;;;;;;;;;18.20;44.00;;;;;;8367719;28;19924;-47
2021/11/01 13:43:28;;;;;;;;;;;18.10;44.00;;;;;;8367838;28;19970;-47
2021/11/01 13:47:38;;;;;;;;;;;18.20;44.00;;;;;;8367173;28;19923;-47
2021/11/01 13:51:38;;;;;;;;;;;18.20;44.00;;;;;;8367709;28;20004;-47
2021/11/01 13:55:48;;;;;;;;;;;18.20;44.00;;;;;;8367218;28;19924;-49
2021/11/01 14:20:40;;;;;;;;;;;18.20;44.00;;;;;;8367057;28;20322;-47
2021/11/01 14:33:47;;;;;;;;;;;18.20;44.00;;;;;;8365817;28;19943;-47
2021/11/01 14:56:10;;;;;;;;;;;18.20;44.00;;;;;;8367825;28;19928;-48
2021/11/01 15:20:42;;;;;;;;;;;18.20;44.00;;;;;;8364740;28;19912;-50
2021/11/01 15:33:03;;;;;;;;;;;18.20;44.00;;;;;;8365145;28;19924;-48
2021/11/01 15:42:05;;;;;;;;;;;18.20;44.00;;;;;;8366224;28;19967;-50
2021/11/01 16:20:11;;;;;;;;;;;18.20;44.00;;;;;;8363593;28;20014;-49
2021/11/01 16:24:12;;;;;;;;;;;18.20;44.00;;;;;;8362877;28;19917;-49
2021/11/01 16:28:14;;;;;;;;;;;18.10;43.90;;;;;;8364204;28;19917;-49
2021/11/01 16:32:26;;;;;;;;;;;18.20;44.00;;;;;;8369731;28;20287;-48
2021/11/01 16:37:00;;;;;;;;;;;18.10;44.00;;;;;;8370438;28;19927;-47
2021/11/01 16:41:01;;;;;;;;;;;18.10;44.00;;;;;;8368866;28;20424;-48
2021/11/01 16:45:13;;;;;;;;;;;18.20;44.00;;;;;;8369010;28;19924;-48
2021/11/01 16:49:14;;;;;;;;;;;18.20;44.10;;;;;;8369803;28;19917;-49
2021/11/01 16:53:14;;;;;;;;;;;18.10;44.00;;;;;;8369000;28;19917;-49
2021/11/01 16:57:20;;;;;;;;;;;18.20;44.10;;;;;;8369392;28;20014;-49
2021/11/01 17:01:24;;;;;;;;;;;18.10;44.00;;;;;;8374588;28;19912;-49
2021/11/01 17:05:46;;;;;;;;;;;18.20;44.10;;;;;;8368548;28;19917;-50
2021/11/01 17:10:19;;;;;;;;;;;18.20;44.10;;;;;;8368863;28;20374;-48
2021/11/01 17:23:02;;;;;;;;;;;18.20;44.20;;;;;;8371845;28;20049;-50
2021/11/01 18:40:45;;;;;;;;;;;18.10;44.10;;;;;;8366819;28;19917;-48
2021/11/01 18:53:28;;;;;;;;;;;18.10;44.10;;;;;;8367316;28;19924;-48
2021/11/01 18:57:30;;;;;;;;;;;18.10;44.00;;;;;;8366272;28;19928;-49
2021/11/01 19:01:35;;;;;;;;;;;18.10;44.00;;;;;;8365628;28;19917;-48
2021/11/01 19:05:46;;;;;;;;;;;18.10;44.00;;;;;;8364987;28;19978;-47
2021/11/01 19:10:11;;;;;;;;;;;18.10;44.00;;;;;;8365318;28;19963;-47
2021/11/01 20:06:43;;;;;;;;;;;18.00;43.80;;;;;;8362969;28;20129;-47
2021/11/01 21:28:52;;;;;;;;;;;17.90;43.60;;;;;;8367448;28;19920;-49
2021/11/01 21:32:52;;;;;;;;;;;17.90;43.60;;;;;;8368231;28;19913;-49
2021/11/01 21:36:54;;;;;;;;;;;17.90;43.60;;;;;;8367852;28;19925;-48
2021/11/01 21:40:54;;;;;;;;;;;17.90;43.60;;;;;;8368214;28;19963;-50
2021/11/01 21:44:55;;;;;;;;;;;17.90;43.60;;;;;;8367410;28;19917;-49
2021/11/01 21:48:55;;;;;;;;;;;17.90;44.10;;;;;;8367996;28;19913;-49
2021/11/01 21:52:59;;;;;;;;;;;17.90;43.60;;;;;;8367962;28;20270;-48
2021/11/01 21:57:06;;;;;;;;;;;17.90;43.60;;;;;;8366875;28;20408;-48
2021/11/01 22:01:23;;;;;;;;;;;17.90;43.60;;;;;;8367521;28;19971;-48
2021/11/01 22:18:08;;;;;;;;;;;17.90;43.50;;;;;;8367062;28;20019;-51
2021/11/01 22:31:57;;;;;;;;;;;17.90;43.50;;;;;;8368002;28;19920;-49
2021/11/01 22:48:23;;;;;;;;;;;17.80;43.50;;;;;;8331388;28;19963;-49
2021/11/01 22:56:50;;;;;;;;;;;17.80;43.50;;;;;;8365261;28;19981;-49
2021/11/01 23:00:55;;;;;;;;;;;17.80;43.50;;;;;;8363785;28;20278;-49
2021/11/01 23:05:21;;;;;;;;;;;17.80;43.50;;;;;;8337781;28;19923;-50
2021/11/01 23:35:27;;;;;;;;;;;17.70;43.40;;;;;;8364220;28;20442;-47
2021/11/01 23:39:28;;;;;;;;;;;17.70;43.50;;;;;;8363909;28;19920;-48
2021/11/01 23:43:29;;;;;;;;;;;17.70;43.50;;;;;;8364379;28;19916;-47
2021/11/01 23:47:29;;;;;;;;;;;17.70;43.50;;;;;;8363869;28;19952;-48
2021/11/01 23:51:31;;;;;;;;;;;17.70;43.50;;;;;;8364271;28;20015;-46
2021/11/01 23:55:31;;;;;;;;;;;17.70;43.50;;;;;;8363622;28;19927;-47
2021/11/01 23:59:34;;;;;;;;;;;17.70;43.60;;;;;;8362863;28;21335;-48
